KVGT/VGT METAR and TAF weather

Enter ICAO airport designator
Station Type Date Time Source
KVGT METAR 2024/04/15 09:53 UTC NOAA

KVGT 150953Z AUTO 31013KT 10SM CLR 13/00 A2986 RMK AO2 SLP117 T01330000


Station Type Date Time Source
KVGT Decoded METAR 2024/04/15 09:53 UTC NOAA

NORTH LAS VEGAS, NV, United States (KVGT) 36-12N 115-11W
Apr 15, 2024 - 05:53 AM EDT / 2024.04.15 0953 UTC
Wind: from the NW (310 degrees) at 15 MPH (13 KT):0
Visibility: 10 mile(s):0
Sky conditions: clear
Temperature: 55.9 F (13.3 C)
Dew Point: 32.0 F (0.0 C)
Relative Humidity: 40%
Pressure (altimeter): 29.86 in. Hg (1011 hPa)
ob: KVGT 150953Z AUTO 31013KT 10SM CLR 13/00 A2986 RMK AO2 SLP117 T01330000
cycle: 10

Station Type Date Time Source
KVGT TAF 2024/04/15 07:42 UTC NOAA